createdAt,value
2022-12-11T00:02:00.131Z,17.90
2022-12-11T00:04:28.112Z,17.80
2022-12-11T00:06:56.214Z,18.30
2022-12-11T00:09:23.995Z,17.00
2022-12-11T00:11:51.822Z,17.30
2022-12-11T00:14:19.715Z,17.70
2022-12-11T00:16:49.228Z,22.40
2022-12-11T00:19:17.172Z,17.70
2022-12-11T00:21:45.787Z,20.80
2022-12-11T00:24:13.612Z,19.00
2022-12-11T00:26:41.419Z,16.70
2022-12-11T00:29:14.523Z,17.80
2022-12-11T00:31:42.546Z,17.90
2022-12-11T00:34:12.115Z,15.20
2022-12-11T00:36:40.124Z,20.80
2022-12-11T00:39:07.957Z,19.80
2022-12-11T00:41:35.816Z,20.90
2022-12-11T00:44:03.866Z,18.00
2022-12-11T00:46:31.834Z,18.30
2022-12-11T00:48:59.663Z,15.60
2022-12-11T00:51:27.560Z,20.20
2022-12-11T00:53:56.691Z,16.60
2022-12-11T00:56:25.332Z,21.40
2022-12-11T00:58:53.140Z,19.20
2022-12-11T01:01:24.305Z,22.50
2022-12-11T01:03:54.128Z,18.10
2022-12-11T01:06:24.879Z,18.00
2022-12-11T01:09:11.384Z,18.00
2022-12-11T01:11:41.151Z,17.30
2022-12-11T01:14:10.361Z,18.00
2022-12-11T01:16:38.299Z,17.80
2022-12-11T01:19:06.403Z,15.50
2022-12-11T01:21:34.234Z,16.90
2022-12-11T01:24:02.010Z,17.70
2022-12-11T01:26:30.733Z,16.20
2022-12-11T01:28:58.715Z,15.30
2022-12-11T01:31:26.548Z,15.10
2022-12-11T01:33:55.379Z,18.30
2022-12-11T01:36:23.764Z,15.70
2022-12-11T01:38:51.849Z,15.90
2022-12-11T01:41:20.812Z,18.00
2022-12-11T01:44:04.681Z,17.70
2022-12-11T01:46:35.026Z,21.30
2022-12-11T01:49:07.580Z,15.50
2022-12-11T01:51:41.670Z,18.30
2022-12-11T01:54:13.703Z,18.70
2022-12-11T01:56:45.251Z,17.00
2022-12-11T01:59:17.847Z,17.10
2022-12-11T02:02:06.660Z,16.00
2022-12-11T02:04:37.612Z,16.00
2022-12-11T02:07:05.859Z,18.80
2022-12-11T02:09:36.315Z,19.20
2022-12-11T02:12:10.331Z,19.30
2022-12-11T02:15:05.587Z,18.90
2022-12-11T02:17:59.957Z,16.30
2022-12-11T02:20:37.719Z,15.40
2022-12-11T02:23:17.685Z,15.50
2022-12-11T02:26:06.949Z,16.70
2022-12-11T02:28:42.380Z,19.60
2022-12-11T02:31:15.988Z,18.00
2022-12-11T02:33:55.096Z,17.00
2022-12-11T02:36:26.274Z,16.00
2022-12-11T02:38:56.735Z,18.70
2022-12-11T02:41:26.979Z,18.30
2022-12-11T02:43:57.755Z,18.40
2022-12-11T02:46:27.019Z,17.40
2022-12-11T02:48:56.777Z,15.90
2022-12-11T02:51:28.829Z,16.30
2022-12-11T02:53:59.056Z,18.40
2022-12-11T02:56:50.892Z,18.80
2022-12-11T02:59:46.469Z,15.80
2022-12-11T03:02:16.728Z,15.80
2022-12-11T03:04:45.972Z,15.90
2022-12-11T03:07:18.834Z,16.20
2022-12-11T03:09:48.347Z,16.50
2022-12-11T03:12:24.313Z,14.30
2022-12-11T03:14:52.139Z,17.00
2022-12-11T03:17:23.161Z,18.30
2022-12-11T03:20:17.513Z,16.50
2022-12-11T03:22:56.054Z,13.20
2022-12-11T03:25:34.223Z,16.50
2022-12-11T03:28:13.574Z,15.00
2022-12-11T03:30:43.882Z,15.70
2022-12-11T03:33:20.728Z,17.20
2022-12-11T03:35:56.213Z,18.90
2022-12-11T03:38:28.474Z,15.40
2022-12-11T03:41:00.786Z,13.70
2022-12-11T03:43:30.033Z,15.10
2022-12-11T03:45:59.876Z,17.50
2022-12-11T03:48:33.364Z,13.70
2022-12-11T03:51:04.879Z,14.90
2022-12-11T03:53:35.686Z,17.80
2022-12-11T03:56:07.404Z,15.40
2022-12-11T03:58:35.431Z,15.30
2022-12-11T04:01:03.256Z,15.40
2022-12-11T04:03:31.112Z,17.00
2022-12-11T04:05:58.970Z,17.50
2022-12-11T04:08:26.984Z,69.30
2022-12-11T04:11:13.466Z,25.20
2022-12-11T04:13:41.904Z,19.80
2022-12-11T04:16:09.955Z,16.60
2022-12-11T04:18:56.187Z,15.10
2022-12-11T04:21:42.406Z,16.70
2022-12-11T04:24:16.011Z,15.00
2022-12-11T04:26:45.923Z,17.00
2022-12-11T04:29:14.664Z,17.60
2022-12-11T04:31:42.578Z,15.70
2022-12-11T04:34:10.574Z,13.90
2022-12-11T04:36:38.378Z,15.70
2022-12-11T04:39:06.369Z,14.20
2022-12-11T04:41:34.346Z,16.10
2022-12-11T04:44:02.128Z,14.40
2022-12-11T04:46:29.910Z,12.30
2022-12-11T04:48:58.181Z,15.60
2022-12-11T04:51:27.266Z,14.70
2022-12-11T04:53:55.532Z,16.50
2022-12-11T04:56:23.376Z,14.90
2022-12-11T04:58:51.215Z,13.20
2022-12-11T05:01:22.167Z,12.90
2022-12-11T05:03:50.443Z,14.50
2022-12-11T05:06:18.371Z,13.30
2022-12-11T05:08:46.232Z,12.00
2022-12-11T05:11:15.870Z,13.90
2022-12-11T05:13:44.926Z,12.10
2022-12-11T05:16:15.566Z,14.40
2022-12-11T05:18:44.097Z,13.10
2022-12-11T05:21:13.658Z,12.20
2022-12-11T05:23:42.365Z,12.10
2022-12-11T05:26:19.232Z,12.50
2022-12-11T05:28:51.908Z,13.10
2022-12-11T05:31:25.065Z,12.50
2022-12-11T05:33:53.656Z,11.40
2022-12-11T05:36:27.924Z,11.90
2022-12-11T05:38:57.090Z,15.20
2022-12-11T05:41:27.175Z,12.00
2022-12-11T05:43:55.423Z,10.30
2022-12-11T05:46:25.637Z,11.90
2022-12-11T05:48:59.711Z,11.80
2022-12-11T05:51:28.655Z,18.00
2022-12-11T05:53:57.867Z,13.80
2022-12-11T05:56:29.569Z,12.40
2022-12-11T05:58:58.672Z,11.60
2022-12-11T06:01:33.452Z,12.80
2022-12-11T06:04:02.433Z,11.80
2022-12-11T06:06:30.335Z,12.40
2022-12-11T06:08:59.639Z,11.30
2022-12-11T06:11:29.162Z,10.80
2022-12-11T06:13:57.022Z,11.90
2022-12-11T06:16:25.486Z,11.50
2022-12-11T06:18:57.863Z,10.30
2022-12-11T06:21:31.435Z,11.30
2022-12-11T06:24:03.487Z,11.10
2022-12-11T06:26:32.213Z,13.00
2022-12-11T06:29:00.030Z,17.90
2022-12-11T06:31:28.244Z,11.80
2022-12-11T06:33:56.023Z,20.40
2022-12-11T06:36:24.745Z,23.10
2022-12-11T06:38:52.734Z,16.80
2022-12-11T06:41:20.521Z,15.40
2022-12-11T06:43:48.512Z,13.20
2022-12-11T06:46:18.652Z,11.60
2022-12-11T06:48:48.048Z,14.20
2022-12-11T06:51:21.992Z,14.20
2022-12-11T06:53:54.516Z,20.70
2022-12-11T06:56:23.665Z,15.10
2022-12-11T06:58:52.116Z,19.80
2022-12-11T07:01:25.958Z,13.90
2022-12-11T07:03:55.868Z,11.00
2022-12-11T07:06:25.278Z,11.10
2022-12-11T07:08:53.436Z,11.60
2022-12-11T07:11:22.353Z,13.20
2022-12-11T07:13:50.251Z,10.30
2022-12-11T07:16:18.814Z,13.10
2022-12-11T07:18:49.753Z,14.70
2022-12-11T07:21:18.460Z,14.10
2022-12-11T07:23:47.230Z,14.20
2022-12-11T07:26:17.608Z,11.80
2022-12-11T07:28:45.329Z,14.60
2022-12-11T07:31:16.147Z,13.30
2022-12-11T07:33:44.062Z,11.80
2022-12-11T07:36:14.754Z,13.10
2022-12-11T07:38:42.572Z,13.70
2022-12-11T07:41:12.693Z,11.30
2022-12-11T07:43:41.367Z,14.90
2022-12-11T07:46:13.130Z,18.10
2022-12-11T07:48:43.744Z,14.40
2022-12-11T07:51:20.463Z,15.20
2022-12-11T07:53:50.067Z,16.70
2022-12-11T07:56:19.089Z,15.10
2022-12-11T07:58:47.573Z,14.20
2022-12-11T08:01:21.550Z,13.60
2022-12-11T08:03:50.711Z,12.60
2022-12-11T08:06:21.392Z,15.50
2022-12-11T08:08:49.229Z,14.60
2022-12-11T08:11:17.087Z,16.50
2022-12-11T08:13:44.858Z,14.20
2022-12-11T08:16:14.918Z,15.30
2022-12-11T08:18:44.211Z,15.10
2022-12-11T08:21:13.583Z,12.10
2022-12-11T08:23:41.722Z,14.60
2022-12-11T08:26:13.004Z,16.90
2022-12-11T08:28:41.052Z,15.90
2022-12-11T08:31:10.651Z,15.70
2022-12-11T08:33:39.743Z,16.50
2022-12-11T08:36:10.060Z,16.10
2022-12-11T08:38:38.010Z,15.90
2022-12-11T08:41:14.385Z,15.50
2022-12-11T08:43:43.092Z,14.90
2022-12-11T08:46:13.561Z,15.30
2022-12-11T08:48:43.479Z,17.70
2022-12-11T08:51:15.555Z,14.80
2022-12-11T08:53:44.439Z,17.40
2022-12-11T08:56:15.887Z,15.40
2022-12-11T08:58:44.855Z,14.80
2022-12-11T09:01:26.884Z,13.50
2022-12-11T09:03:56.660Z,17.40
2022-12-11T09:06:27.915Z,16.00
2022-12-11T09:08:58.530Z,14.50
2022-12-11T09:11:29.565Z,12.10
2022-12-11T09:14:02.102Z,12.80
2022-12-11T09:16:33.905Z,13.50
2022-12-11T09:19:01.690Z,12.40
2022-12-11T09:21:30.352Z,14.20
2022-12-11T09:24:00.250Z,14.30
2022-12-11T09:26:30.221Z,14.90
2022-12-11T09:28:58.920Z,14.10
2022-12-11T09:31:29.719Z,14.20
2022-12-11T09:34:03.992Z,14.80
2022-12-11T09:36:32.532Z,12.30
2022-12-11T09:39:02.627Z,16.70
2022-12-11T09:41:49.665Z,17.30
2022-12-11T09:44:46.433Z,15.70
2022-12-11T09:47:32.107Z,14.40
2022-12-11T09:52:53.119Z,14.70
2022-12-11T09:55:24.352Z,15.50
2022-12-11T09:58:06.707Z,13.50
2022-12-11T10:01:09.655Z,12.80
2022-12-11T10:03:59.938Z,12.60
2022-12-11T10:06:37.095Z,12.20
2022-12-11T10:09:26.070Z,18.20
2022-12-11T10:12:06.065Z,13.40
2022-12-11T10:15:15.122Z,17.00
2022-12-11T10:17:44.762Z,73.90
2022-12-11T10:20:24.563Z,15.70
2022-12-11T10:22:54.411Z,48.30
2022-12-11T10:25:45.018Z,52.70
2022-12-11T10:28:18.265Z,23.70
2022-12-11T10:30:55.609Z,51.80
2022-12-11T10:33:45.545Z,26.40
2022-12-11T10:36:21.207Z,21.70
2022-12-11T10:38:49.226Z,21.60
2022-12-11T10:41:24.606Z,16.20
2022-12-11T10:43:53.913Z,18.20
2022-12-11T10:46:33.163Z,20.80
2022-12-11T10:49:01.941Z,39.60
2022-12-11T10:51:32.502Z,25.80
2022-12-11T10:54:16.592Z,21.60
2022-12-11T10:56:48.431Z,18.00
2022-12-11T10:59:31.360Z,20.40
2022-12-11T11:01:59.824Z,21.20
2022-12-11T11:04:32.456Z,27.30
2022-12-11T11:07:14.138Z,25.80
2022-12-11T11:09:42.612Z,21.70
2022-12-11T11:12:22.747Z,26.60
2022-12-11T11:15:12.145Z,25.50
2022-12-11T11:17:55.407Z,19.40
2022-12-11T11:20:29.535Z,18.50
2022-12-11T11:23:01.621Z,20.60
2022-12-11T11:25:32.583Z,30.30
2022-12-11T11:28:03.916Z,21.40
2022-12-11T11:30:41.407Z,23.50
2022-12-11T11:33:13.714Z,23.30
2022-12-11T11:35:52.581Z,21.90
2022-12-11T11:38:25.140Z,16.60
2022-12-11T11:41:15.480Z,24.40
2022-12-11T11:43:47.590Z,24.30
2022-12-11T11:46:36.907Z,41.80
2022-12-11T11:49:22.945Z,18.30
2022-12-11T11:51:56.562Z,20.20
2022-12-11T11:54:33.937Z,22.00
2022-12-11T11:57:13.396Z,18.00
2022-12-11T11:59:49.876Z,17.90
2022-12-11T12:02:18.798Z,34.10
2022-12-11T12:04:49.305Z,21.10
2022-12-11T12:07:44.635Z,35.20
2022-12-11T12:13:47.681Z,31.50
2022-12-11T12:16:22.946Z,25.00
2022-12-11T12:19:18.408Z,22.10
2022-12-11T12:21:51.433Z,17.40
2022-12-11T12:24:51.117Z,23.80
2022-12-11T12:27:52.731Z,22.00
2022-12-11T12:30:23.209Z,24.00
2022-12-11T12:33:15.163Z,27.40
2022-12-11T12:36:07.362Z,22.20
2022-12-11T12:38:51.448Z,18.60
2022-12-11T12:41:33.055Z,16.70
2022-12-11T12:44:09.992Z,18.40
2022-12-11T12:46:59.505Z,17.40
2022-12-11T12:50:03.409Z,18.90
2022-12-11T12:52:34.885Z,17.10
2022-12-11T12:55:23.055Z,23.90
2022-12-11T12:58:00.604Z,36.50
2022-12-11T13:00:37.775Z,27.70
2022-12-11T13:03:15.446Z,26.70
2022-12-11T13:05:55.010Z,21.10
2022-12-11T13:08:33.535Z,26.20
2022-12-11T13:11:08.597Z,24.30
2022-12-11T13:13:43.050Z,21.30
2022-12-11T13:16:16.382Z,24.50
2022-12-11T13:18:48.490Z,22.70
2022-12-11T13:21:32.734Z,41.60
2022-12-11T13:24:12.780Z,40.30
2022-12-11T13:26:42.244Z,19.00
2022-12-11T13:29:30.613Z,74.00
2022-12-11T13:32:03.302Z,35.70
2022-12-11T13:34:33.893Z,25.70
2022-12-11T13:37:03.836Z,36.30
2022-12-11T13:39:35.129Z,15.50
2022-12-11T13:42:06.731Z,23.20
2022-12-11T13:44:39.650Z,26.40
2022-12-11T13:47:15.661Z,21.40
2022-12-11T13:52:20.358Z,29.30
2022-12-11T13:54:50.566Z,40.80
2022-12-11T13:57:22.045Z,36.30
2022-12-11T13:59:55.122Z,12.30
2022-12-11T14:02:35.504Z,13.10
2022-12-11T14:05:07.369Z,31.10
2022-12-11T14:07:40.489Z,28.40
2022-12-11T14:10:29.571Z,73.30
2022-12-11T14:13:05.174Z,33.10
2022-12-11T14:15:35.507Z,45.60
2022-12-11T14:18:05.205Z,30.40
2022-12-11T14:20:34.268Z,36.20
2022-12-11T14:23:18.141Z,24.00
2022-12-11T14:26:00.471Z,23.70
2022-12-11T14:28:35.740Z,13.90
2022-12-11T14:31:05.808Z,14.20
2022-12-11T14:33:38.453Z,18.70
2022-12-11T14:36:07.114Z,96.00
2022-12-11T14:38:55.195Z,26.60
2022-12-11T14:41:49.723Z,17.50
2022-12-11T14:44:21.570Z,18.70
2022-12-11T14:46:57.933Z,20.90
2022-12-11T14:49:51.472Z,15.20
2022-12-11T14:52:24.255Z,16.10
2022-12-11T14:55:01.938Z,18.40
2022-12-11T14:57:31.171Z,21.70
2022-12-11T14:59:59.520Z,34.80
2022-12-11T15:02:32.566Z,24.00
2022-12-11T15:05:15.468Z,21.30
2022-12-11T15:07:57.957Z,16.40
2022-12-11T15:10:31.550Z,15.60
2022-12-11T15:12:59.758Z,16.00
2022-12-11T15:15:31.521Z,14.00
2022-12-11T15:18:14.310Z,15.90
2022-12-11T15:20:42.549Z,17.70
2022-12-11T15:23:14.085Z,17.10
2022-12-11T15:28:39.162Z,21.90
2022-12-11T15:31:23.568Z,19.10
2022-12-11T15:33:51.598Z,18.10
2022-12-11T15:36:30.880Z,22.10
2022-12-11T15:38:59.016Z,27.20
2022-12-11T15:41:28.520Z,21.30
2022-12-11T15:43:59.128Z,21.50
2022-12-11T15:46:27.430Z,45.80
2022-12-11T15:48:57.057Z,21.50
2022-12-11T15:51:27.382Z,19.80
2022-12-11T15:53:55.312Z,19.60
2022-12-11T15:56:23.161Z,18.80
2022-12-11T15:58:51.077Z,19.40
2022-12-11T16:01:18.985Z,93.60
2022-12-11T16:03:46.829Z,107.20
2022-12-11T16:06:14.651Z,69.00
2022-12-11T16:08:42.513Z,32.30
2022-12-11T16:11:13.262Z,21.90
2022-12-11T16:13:41.129Z,31.80
2022-12-11T16:16:08.981Z,27.40
2022-12-11T16:18:36.975Z,20.50
2022-12-11T16:21:06.736Z,22.20
2022-12-11T16:23:35.653Z,27.20
2022-12-11T16:26:09.471Z,22.50
2022-12-11T16:28:37.376Z,28.10
2022-12-11T16:31:10.714Z,25.60
2022-12-11T16:33:39.073Z,34.20
2022-12-11T16:36:18.110Z,61.10
2022-12-11T16:38:53.567Z,33.10
2022-12-11T16:41:23.039Z,38.00
2022-12-11T16:43:51.354Z,30.30
2022-12-11T16:46:20.811Z,19.80
2022-12-11T16:48:48.872Z,31.00
2022-12-11T16:51:16.908Z,51.60
2022-12-11T16:53:44.668Z,28.80
2022-12-11T16:56:12.714Z,26.80
2022-12-11T16:58:40.735Z,36.40
2022-12-11T17:01:12.142Z,51.70
2022-12-11T17:03:41.927Z,67.40
2022-12-11T17:06:11.977Z,49.90
2022-12-11T17:08:40.210Z,42.40
2022-12-11T17:11:14.728Z,50.30
2022-12-11T17:13:42.965Z,67.40
2022-12-11T17:16:15.681Z,36.70
2022-12-11T17:18:43.919Z,67.10
2022-12-11T17:21:14.986Z,66.70
2022-12-11T17:23:43.010Z,111.00
2022-12-11T17:26:11.684Z,62.50
2022-12-11T17:28:39.646Z,47.40
2022-12-11T17:31:14.788Z,33.90
2022-12-11T17:33:44.195Z,25.50
2022-12-11T17:36:15.017Z,43.80
2022-12-11T17:38:42.891Z,44.20
2022-12-11T17:41:19.803Z,51.10
2022-12-11T17:43:50.820Z,45.80
2022-12-11T17:46:20.213Z,55.70
2022-12-11T17:48:48.901Z,50.10
2022-12-11T17:51:23.965Z,55.00
2022-12-11T17:56:20.979Z,58.30
2022-12-11T17:58:48.822Z,70.70
2022-12-11T18:01:17.291Z,55.30
2022-12-11T18:03:45.173Z,36.90
2022-12-11T18:06:15.519Z,42.70
2022-12-11T18:08:45.616Z,39.30
2022-12-11T18:11:16.436Z,28.90
2022-12-11T18:13:45.549Z,27.50
2022-12-11T18:16:29.113Z,27.90
2022-12-11T18:18:57.191Z,27.10
2022-12-11T18:21:28.868Z,33.30
2022-12-11T18:23:57.088Z,25.40
2022-12-11T18:26:26.239Z,21.50
2022-12-11T18:28:54.670Z,22.00
2022-12-11T18:31:23.293Z,20.40
2022-12-11T18:33:51.795Z,19.90
2022-12-11T18:36:20.752Z,23.80
2022-12-11T18:38:49.028Z,28.20
2022-12-11T18:41:18.910Z,21.30
2022-12-11T18:43:47.196Z,22.00
2022-12-11T18:46:16.780Z,26.50
2022-12-11T18:48:45.772Z,21.70
2022-12-11T18:51:17.524Z,24.20
2022-12-11T18:53:45.803Z,27.30
2022-12-11T18:56:16.899Z,29.20
2022-12-11T18:58:45.484Z,31.60
2022-12-11T19:01:16.838Z,29.90
2022-12-11T19:03:46.039Z,36.50
2022-12-11T19:06:25.305Z,38.70
2022-12-11T19:08:53.170Z,30.50
2022-12-11T19:11:24.579Z,28.40
2022-12-11T19:13:56.590Z,32.40
2022-12-11T19:16:32.621Z,27.80
2022-12-11T19:21:31.622Z,30.00
2022-12-11T19:23:59.791Z,28.30
2022-12-11T19:26:27.683Z,43.10
2022-12-11T19:28:59.985Z,27.00
2022-12-11T19:31:30.044Z,26.80
2022-12-11T19:33:58.844Z,24.60
2022-12-11T19:36:29.456Z,21.70
2022-12-11T19:39:01.372Z,25.90
2022-12-11T19:41:30.909Z,29.30
2022-12-11T19:43:59.823Z,35.20
2022-12-11T19:46:28.774Z,20.70
2022-12-11T19:48:58.609Z,33.60
2022-12-11T19:51:33.776Z,28.70
2022-12-11T19:54:02.985Z,16.80
2022-12-11T19:56:32.136Z,21.10
2022-12-11T19:59:03.208Z,18.30
2022-12-11T20:01:34.018Z,78.70
2022-12-11T20:04:05.427Z,28.20
2022-12-11T20:06:35.688Z,29.70
2022-12-11T20:09:05.671Z,28.50
2022-12-11T20:11:33.727Z,27.80
2022-12-11T20:14:01.509Z,20.40
2022-12-11T20:16:53.770Z,38.10
2022-12-11T20:19:17.520Z,20.80
2022-12-11T20:21:45.412Z,19.70
2022-12-11T20:24:13.352Z,26.60
2022-12-11T20:26:41.391Z,26.70
2022-12-11T20:29:09.329Z,29.00
2022-12-11T20:31:37.567Z,28.30
2022-12-11T20:34:06.162Z,16.50
2022-12-11T20:36:35.271Z,20.20
2022-12-11T20:39:03.827Z,24.40
2022-12-11T20:41:31.673Z,22.40
2022-12-11T20:43:59.537Z,24.10
2022-12-11T20:46:27.766Z,17.00
2022-12-11T20:48:58.838Z,22.90
2022-12-11T20:51:28.097Z,18.20
2022-12-11T20:53:59.026Z,16.10
2022-12-11T20:56:30.217Z,16.00
2022-12-11T20:58:59.653Z,15.50
2022-12-11T21:01:31.048Z,15.70
2022-12-11T21:03:59.760Z,14.70
2022-12-11T21:06:33.898Z,14.30
2022-12-11T21:09:07.668Z,18.80
2022-12-11T21:11:35.499Z,24.90
2022-12-11T21:14:03.772Z,24.90
2022-12-11T21:16:32.003Z,16.30
2022-12-11T21:18:59.982Z,24.00
2022-12-11T21:21:27.800Z,15.50
2022-12-11T21:23:55.681Z,18.60
2022-12-11T21:26:23.790Z,18.10
2022-12-11T21:28:52.177Z,18.30
2022-12-11T21:31:20.252Z,18.00
2022-12-11T21:33:48.653Z,17.00
2022-12-11T21:36:17.156Z,13.90
2022-12-11T21:38:46.221Z,15.60
2022-12-11T21:41:17.384Z,15.10
2022-12-11T21:44:40.934Z,14.40
2022-12-11T21:46:35.309Z,15.20
2022-12-11T21:49:03.336Z,14.70
2022-12-11T21:51:37.197Z,15.50
2022-12-11T21:56:38.224Z,16.60
2022-12-11T21:59:06.783Z,19.50
2022-12-11T22:01:37.328Z,20.40
2022-12-11T22:04:06.036Z,21.60
2022-12-11T22:06:34.699Z,20.00
2022-12-11T22:09:03.539Z,18.20
2022-12-11T22:11:33.263Z,19.40
2022-12-11T22:14:01.805Z,19.20
2022-12-11T22:16:30.305Z,15.40
2022-12-11T22:18:58.289Z,17.20
2022-12-11T22:21:26.250Z,22.80
2022-12-11T22:23:55.450Z,19.10
2022-12-11T22:26:25.449Z,16.40
2022-12-11T22:28:54.148Z,13.10
2022-12-11T22:31:24.079Z,15.20
2022-12-11T22:33:53.891Z,12.40
2022-12-11T22:36:26.869Z,13.60
2022-12-11T22:38:54.994Z,12.50
2022-12-11T22:41:30.146Z,13.10
2022-12-11T22:43:59.197Z,12.60
2022-12-11T22:46:29.587Z,11.50
2022-12-11T22:48:58.583Z,10.70
2022-12-11T22:51:26.724Z,11.90
2022-12-11T22:53:54.607Z,10.90
2022-12-11T22:56:22.391Z,12.50
2022-12-11T22:58:50.928Z,13.80
2022-12-11T23:01:21.901Z,12.20
2022-12-11T23:03:49.933Z,15.90
2022-12-11T23:06:20.537Z,23.70
2022-12-11T23:08:48.721Z,21.00
2022-12-11T23:11:20.897Z,16.70
2022-12-11T23:13:48.755Z,20.70
2022-12-11T23:16:16.927Z,14.70
2022-12-11T23:18:45.271Z,18.90
2022-12-11T23:21:13.450Z,14.20
2022-12-11T23:23:41.432Z,14.90
2022-12-11T23:26:12.764Z,12.80
2022-12-11T23:28:41.649Z,16.60
2022-12-11T23:31:09.545Z,11.60
2022-12-11T23:33:37.654Z,11.30
2022-12-11T23:36:06.256Z,12.20
2022-12-11T23:38:34.595Z,12.60
2022-12-11T23:41:04.571Z,14.70
2022-12-11T23:43:34.227Z,17.20
2022-12-11T23:46:08.221Z,14.60
2022-12-11T23:48:36.039Z,14.80
2022-12-11T23:51:05.595Z,13.10
2022-12-11T23:53:33.606Z,12.70
2022-12-11T23:56:10.373Z,19.40
2022-12-11T23:58:39.876Z,14.30
